sensor_id;sensor_type;location;lat;lon;timestamp;P1;durP1;ratioP1;P2;durP2;ratioP2
69594;SDS011;56800;52.142;5.364;2024-03-02T00:01:15;4.43;;;1.20;;
69594;SDS011;56800;52.142;5.364;2024-03-02T00:03:42;4.33;;;1.40;;
69594;SDS011;56800;52.142;5.364;2024-03-02T00:06:10;3.35;;;1.60;;
69594;SDS011;56800;52.142;5.364;2024-03-02T00:08:38;4.20;;;1.63;;
69594;SDS011;56800;52.142;5.364;2024-03-02T00:11:07;3.63;;;1.45;;
69594;SDS011;56800;52.142;5.364;2024-03-02T00:13:34;3.65;;;1.30;;
69594;SDS011;56800;52.142;5.364;2024-03-02T00:16:02;2.83;;;1.50;;
69594;SDS011;56800;52.142;5.364;2024-03-02T00:18:32;4.15;;;1.40;;
69594;SDS011;56800;52.142;5.364;2024-03-02T00:21:01;3.72;;;1.38;;
69594;SDS011;56800;52.142;5.364;2024-03-02T00:23:29;3.47;;;1.52;;
69594;SDS011;56800;52.142;5.364;2024-03-02T00:25:58;4.15;;;1.38;;
69594;SDS011;56800;52.142;5.364;2024-03-02T00:28:33;2.10;;;1.20;;
69594;SDS011;56800;52.142;5.364;2024-03-02T00:31:03;9.63;;;1.80;;
69594;SDS011;56800;52.142;5.364;2024-03-02T00:33:35;2.45;;;0.98;;
69594;SDS011;56800;52.142;5.364;2024-03-02T00:36:04;2.63;;;1.50;;
69594;SDS011;56800;52.142;5.364;2024-03-02T00:38:33;2.70;;;1.33;;
69594;SDS011;56800;52.142;5.364;2024-03-02T00:41:04;3.93;;;1.33;;
69594;SDS011;56800;52.142;5.364;2024-03-02T00:43:47;2.47;;;1.20;;
69594;SDS011;56800;52.142;5.364;2024-03-02T00:46:18;3.20;;;1.10;;
69594;SDS011;56800;52.142;5.364;2024-03-02T00:48:57;3.35;;;1.00;;
69594;SDS011;56800;52.142;5.364;2024-03-02T00:51:27;1.73;;;0.95;;
69594;SDS011;56800;52.142;5.364;2024-03-02T00:53:58;1.90;;;1.00;;
69594;SDS011;56800;52.142;5.364;2024-03-02T00:56:26;1.98;;;0.80;;
69594;SDS011;56800;52.142;5.364;2024-03-02T00:58:53;3.53;;;0.98;;
69594;SDS011;56800;52.142;5.364;2024-03-02T01:01:20;2.90;;;0.95;;
69594;SDS011;56800;52.142;5.364;2024-03-02T01:03:48;2.10;;;0.85;;
69594;SDS011;56800;52.142;5.364;2024-03-02T01:06:18;2.70;;;1.00;;
69594;SDS011;56800;52.142;5.364;2024-03-02T01:08:45;1.55;;;0.90;;
69594;SDS011;56800;52.142;5.364;2024-03-02T01:11:13;1.75;;;0.80;;
69594;SDS011;56800;52.142;5.364;2024-03-02T01:13:40;1.23;;;0.73;;
69594;SDS011;56800;52.142;5.364;2024-03-02T01:16:07;1.60;;;0.75;;
69594;SDS011;56800;52.142;5.364;2024-03-02T01:18:34;1.37;;;0.80;;
69594;SDS011;56800;52.142;5.364;2024-03-02T01:21:01;1.02;;;0.85;;
69594;SDS011;56800;52.142;5.364;2024-03-02T01:23:28;2.22;;;0.70;;
69594;SDS011;56800;52.142;5.364;2024-03-02T01:25:55;1.20;;;0.60;;
69594;SDS011;56800;52.142;5.364;2024-03-02T01:28:22;1.15;;;0.73;;
69594;SDS011;56800;52.142;5.364;2024-03-02T01:30:49;2.50;;;0.80;;
69594;SDS011;56800;52.142;5.364;2024-03-02T01:33:16;1.20;;;0.60;;
69594;SDS011;56800;52.142;5.364;2024-03-02T01:35:44;1.27;;;0.70;;
69594;SDS011;56800;52.142;5.364;2024-03-02T01:38:11;1.15;;;0.90;;
69594;SDS011;56800;52.142;5.364;2024-03-02T01:40:38;1.27;;;0.90;;
69594;SDS011;56800;52.142;5.364;2024-03-02T01:43:05;1.33;;;0.77;;
69594;SDS011;56800;52.142;5.364;2024-03-02T01:45:33;1.63;;;0.85;;
69594;SDS011;56800;52.142;5.364;2024-03-02T01:48:02;2.15;;;0.70;;
69594;SDS011;56800;52.142;5.364;2024-03-02T01:50:33;2.65;;;0.90;;
69594;SDS011;56800;52.142;5.364;2024-03-02T01:53:01;0.75;;;0.60;;
69594;SDS011;56800;52.142;5.364;2024-03-02T01:55:31;1.23;;;0.80;;
69594;SDS011;56800;52.142;5.364;2024-03-02T01:57:59;1.42;;;0.70;;
69594;SDS011;56800;52.142;5.364;2024-03-02T02:00:26;1.35;;;0.80;;
69594;SDS011;56800;52.142;5.364;2024-03-02T02:02:53;2.17;;;1.00;;
69594;SDS011;56800;52.142;5.364;2024-03-02T02:05:21;1.63;;;0.93;;
69594;SDS011;56800;52.142;5.364;2024-03-02T02:07:49;1.67;;;0.83;;
69594;SDS011;56800;52.142;5.364;2024-03-02T02:10:16;2.95;;;0.80;;
69594;SDS011;56800;52.142;5.364;2024-03-02T02:12:43;0.73;;;0.43;;
69594;SDS011;56800;52.142;5.364;2024-03-02T02:15:23;1.95;;;1.00;;
69594;SDS011;56800;52.142;5.364;2024-03-02T02:17:50;1.20;;;0.60;;
69594;SDS011;56800;52.142;5.364;2024-03-02T02:20:17;1.60;;;0.90;;
69594;SDS011;56800;52.142;5.364;2024-03-02T02:23:04;1.70;;;0.90;;
69594;SDS011;56800;52.142;5.364;2024-03-02T02:25:36;1.45;;;0.52;;
69594;SDS011;56800;52.142;5.364;2024-03-02T02:28:03;2.55;;;0.80;;
69594;SDS011;56800;52.142;5.364;2024-03-02T02:30:30;1.63;;;0.85;;
69594;SDS011;56800;52.142;5.364;2024-03-02T02:32:59;2.87;;;0.80;;
69594;SDS011;56800;52.142;5.364;2024-03-02T02:35:26;1.02;;;0.77;;
69594;SDS011;56800;52.142;5.364;2024-03-02T02:37:53;2.50;;;1.05;;
69594;SDS011;56800;52.142;5.364;2024-03-02T02:40:22;1.10;;;0.77;;
69594;SDS011;56800;52.142;5.364;2024-03-02T02:42:49;1.23;;;0.80;;
69594;SDS011;56800;52.142;5.364;2024-03-02T02:45:18;1.10;;;0.67;;
69594;SDS011;56800;52.142;5.364;2024-03-02T02:47:45;1.40;;;0.93;;
69594;SDS011;56800;52.142;5.364;2024-03-02T02:50:12;3.20;;;0.85;;
69594;SDS011;56800;52.142;5.364;2024-03-02T02:52:39;1.40;;;0.90;;
69594;SDS011;56800;52.142;5.364;2024-03-02T02:55:08;2.95;;;0.90;;
69594;SDS011;56800;52.142;5.364;2024-03-02T02:57:37;1.07;;;0.73;;
69594;SDS011;56800;52.142;5.364;2024-03-02T03:00:06;1.00;;;0.70;;
69594;SDS011;56800;52.142;5.364;2024-03-02T03:02:42;1.83;;;0.80;;
69594;SDS011;56800;52.142;5.364;2024-03-02T03:05:11;2.33;;;0.70;;
69594;SDS011;56800;52.142;5.364;2024-03-02T03:07:41;0.85;;;0.60;;
69594;SDS011;56800;52.142;5.364;2024-03-02T03:10:08;1.50;;;0.77;;
69594;SDS011;56800;52.142;5.364;2024-03-02T03:12:35;1.50;;;0.77;;
69594;SDS011;56800;52.142;5.364;2024-03-02T03:15:03;1.95;;;0.70;;
69594;SDS011;56800;52.142;5.364;2024-03-02T03:17:35;1.80;;;0.70;;
69594;SDS011;56800;52.142;5.364;2024-03-02T03:20:03;3.42;;;0.70;;
69594;SDS011;56800;52.142;5.364;2024-03-02T03:22:31;2.27;;;0.80;;
69594;SDS011;56800;52.142;5.364;2024-03-02T03:24:58;2.42;;;0.80;;
69594;SDS011;56800;52.142;5.364;2024-03-02T03:27:26;1.42;;;0.80;;
69594;SDS011;56800;52.142;5.364;2024-03-02T03:29:53;1.73;;;0.90;;
69594;SDS011;56800;52.142;5.364;2024-03-02T03:32:21;1.50;;;0.90;;
69594;SDS011;56800;52.142;5.364;2024-03-02T03:34:48;1.67;;;0.70;;
69594;SDS011;56800;52.142;5.364;2024-03-02T03:37:15;1.60;;;0.60;;
69594;SDS011;56800;52.142;5.364;2024-03-02T03:39:42;2.03;;;0.75;;
69594;SDS011;56800;52.142;5.364;2024-03-02T03:42:09;1.30;;;1.00;;
69594;SDS011;56800;52.142;5.364;2024-03-02T03:44:35;1.83;;;0.70;;
69594;SDS011;56800;52.142;5.364;2024-03-02T03:47:02;1.10;;;0.60;;
69594;SDS011;56800;52.142;5.364;2024-03-02T03:49:29;1.20;;;0.75;;
69594;SDS011;56800;52.142;5.364;2024-03-02T03:51:56;3.50;;;0.88;;
69594;SDS011;56800;52.142;5.364;2024-03-02T03:54:23;3.83;;;0.88;;
69594;SDS011;56800;52.142;5.364;2024-03-02T03:56:50;1.52;;;0.60;;
69594;SDS011;56800;52.142;5.364;2024-03-02T03:59:16;2.03;;;0.97;;
69594;SDS011;56800;52.142;5.364;2024-03-02T04:01:43;1.25;;;0.70;;
69594;SDS011;56800;52.142;5.364;2024-03-02T04:04:10;2.55;;;0.90;;
69594;SDS011;56800;52.142;5.364;2024-03-02T04:06:37;3.50;;;0.65;;
69594;SDS011;56800;52.142;5.364;2024-03-02T04:09:04;1.20;;;0.60;;
69594;SDS011;56800;52.142;5.364;2024-03-02T04:11:31;1.30;;;0.73;;
69594;SDS011;56800;52.142;5.364;2024-03-02T04:13:58;0.90;;;0.60;;
69594;SDS011;56800;52.142;5.364;2024-03-02T04:16:25;2.03;;;0.73;;
69594;SDS011;56800;52.142;5.364;2024-03-02T04:18:51;1.27;;;0.70;;
69594;SDS011;56800;52.142;5.364;2024-03-02T04:21:18;3.33;;;0.80;;
69594;SDS011;56800;52.142;5.364;2024-03-02T04:23:45;1.90;;;0.70;;
69594;SDS011;56800;52.142;5.364;2024-03-02T04:26:13;1.67;;;0.70;;
69594;SDS011;56800;52.142;5.364;2024-03-02T04:28:41;2.05;;;0.80;;
69594;SDS011;56800;52.142;5.364;2024-03-02T04:31:07;2.03;;;1.05;;
69594;SDS011;56800;52.142;5.364;2024-03-02T04:33:34;1.08;;;0.60;;
69594;SDS011;56800;52.142;5.364;2024-03-02T04:36:01;2.50;;;0.60;;
69594;SDS011;56800;52.142;5.364;2024-03-02T04:38:28;3.80;;;0.80;;
69594;SDS011;56800;52.142;5.364;2024-03-02T04:40:56;1.20;;;0.70;;
69594;SDS011;56800;52.142;5.364;2024-03-02T04:43:23;2.13;;;0.80;;
69594;SDS011;56800;52.142;5.364;2024-03-02T04:45:50;1.90;;;0.88;;
69594;SDS011;56800;52.142;5.364;2024-03-02T04:48:17;1.00;;;0.70;;
69594;SDS011;56800;52.142;5.364;2024-03-02T04:50:44;2.67;;;0.90;;
69594;SDS011;56800;52.142;5.364;2024-03-02T04:53:11;1.95;;;0.88;;
69594;SDS011;56800;52.142;5.364;2024-03-02T04:55:38;1.38;;;0.75;;
69594;SDS011;56800;52.142;5.364;2024-03-02T04:58:05;1.38;;;0.80;;
69594;SDS011;56800;52.142;5.364;2024-03-02T05:00:33;1.40;;;0.80;;
69594;SDS011;56800;52.142;5.364;2024-03-02T05:03:00;1.77;;;0.70;;
69594;SDS011;56800;52.142;5.364;2024-03-02T05:05:28;2.92;;;0.82;;
69594;SDS011;56800;52.142;5.364;2024-03-02T05:07:54;1.20;;;0.82;;
69594;SDS011;56800;52.142;5.364;2024-03-02T05:10:21;2.75;;;0.90;;
69594;SDS011;56800;52.142;5.364;2024-03-02T05:12:48;1.10;;;0.67;;
69594;SDS011;56800;52.142;5.364;2024-03-02T05:15:26;1.52;;;0.77;;
69594;SDS011;56800;52.142;5.364;2024-03-02T05:17:53;2.97;;;1.00;;
69594;SDS011;56800;52.142;5.364;2024-03-02T05:20:20;1.73;;;0.80;;
69594;SDS011;56800;52.142;5.364;2024-03-02T05:22:47;2.28;;;0.75;;
69594;SDS011;56800;52.142;5.364;2024-03-02T05:25:15;1.27;;;0.77;;
69594;SDS011;56800;52.142;5.364;2024-03-02T05:27:42;2.33;;;1.00;;
69594;SDS011;56800;52.142;5.364;2024-03-02T05:30:09;4.47;;;1.00;;
69594;SDS011;56800;52.142;5.364;2024-03-02T05:32:36;3.17;;;0.70;;
69594;SDS011;56800;52.142;5.364;2024-03-02T05:35:04;1.92;;;0.77;;
69594;SDS011;56800;52.142;5.364;2024-03-02T05:37:31;4.60;;;1.00;;
69594;SDS011;56800;52.142;5.364;2024-03-02T05:39:58;1.98;;;0.70;;
69594;SDS011;56800;52.142;5.364;2024-03-02T05:42:26;2.08;;;1.20;;
69594;SDS011;56800;52.142;5.364;2024-03-02T05:44:54;2.22;;;0.80;;
69594;SDS011;56800;52.142;5.364;2024-03-02T05:47:20;4.97;;;1.02;;
69594;SDS011;56800;52.142;5.364;2024-03-02T05:49:47;2.13;;;0.90;;
69594;SDS011;56800;52.142;5.364;2024-03-02T05:52:14;6.78;;;0.90;;
69594;SDS011;56800;52.142;5.364;2024-03-02T05:54:41;3.38;;;0.82;;
69594;SDS011;56800;52.142;5.364;2024-03-02T05:57:08;2.25;;;0.63;;
69594;SDS011;56800;52.142;5.364;2024-03-02T05:59:58;2.75;;;0.80;;
69594;SDS011;56800;52.142;5.364;2024-03-02T06:02:25;3.47;;;1.20;;
69594;SDS011;56800;52.142;5.364;2024-03-02T06:04:53;1.83;;;0.60;;
69594;SDS011;56800;52.142;5.364;2024-03-02T06:07:22;3.47;;;0.88;;
69594;SDS011;56800;52.142;5.364;2024-03-02T06:09:48;2.63;;;0.77;;
69594;SDS011;56800;52.142;5.364;2024-03-02T06:12:18;5.10;;;0.80;;
69594;SDS011;56800;52.142;5.364;2024-03-02T06:14:45;5.23;;;0.90;;
69594;SDS011;56800;52.142;5.364;2024-03-02T06:17:12;3.90;;;1.00;;
69594;SDS011;56800;52.142;5.364;2024-03-02T06:19:39;3.90;;;1.10;;
69594;SDS011;56800;52.142;5.364;2024-03-02T06:22:06;3.10;;;0.82;;
69594;SDS011;56800;52.142;5.364;2024-03-02T06:24:36;4.13;;;0.73;;
69594;SDS011;56800;52.142;5.364;2024-03-02T06:27:04;3.07;;;0.70;;
69594;SDS011;56800;52.142;5.364;2024-03-02T06:29:34;1.45;;;0.70;;
69594;SDS011;56800;52.142;5.364;2024-03-02T06:32:01;2.20;;;0.65;;
69594;SDS011;56800;52.142;5.364;2024-03-02T06:34:28;3.67;;;1.15;;
69594;SDS011;56800;52.142;5.364;2024-03-02T06:36:55;3.22;;;0.60;;
69594;SDS011;56800;52.142;5.364;2024-03-02T06:39:22;6.70;;;0.97;;
69594;SDS011;56800;52.142;5.364;2024-03-02T06:41:49;3.03;;;0.70;;
69594;SDS011;56800;52.142;5.364;2024-03-02T06:44:15;2.95;;;0.95;;
69594;SDS011;56800;52.142;5.364;2024-03-02T06:46:42;4.22;;;1.00;;
69594;SDS011;56800;52.142;5.364;2024-03-02T06:49:09;2.75;;;0.88;;
69594;SDS011;56800;52.142;5.364;2024-03-02T06:51:39;2.30;;;0.93;;
69594;SDS011;56800;52.142;5.364;2024-03-02T06:54:06;2.58;;;0.90;;
69594;SDS011;56800;52.142;5.364;2024-03-02T06:56:32;4.97;;;0.60;;
69594;SDS011;56800;52.142;5.364;2024-03-02T06:58:59;1.50;;;0.77;;
69594;SDS011;56800;52.142;5.364;2024-03-02T07:01:26;4.63;;;1.40;;
69594;SDS011;56800;52.142;5.364;2024-03-02T07:03:54;3.27;;;0.93;;
69594;SDS011;56800;52.142;5.364;2024-03-02T07:06:21;3.78;;;0.80;;
69594;SDS011;56800;52.142;5.364;2024-03-02T07:08:48;3.53;;;1.25;;
69594;SDS011;56800;52.142;5.364;2024-03-02T07:11:15;1.55;;;0.90;;
69594;SDS011;56800;52.142;5.364;2024-03-02T07:13:42;1.25;;;0.70;;
69594;SDS011;56800;52.142;5.364;2024-03-02T07:16:08;1.77;;;0.90;;
69594;SDS011;56800;52.142;5.364;2024-03-02T07:18:54;3.10;;;0.90;;
69594;SDS011;56800;52.142;5.364;2024-03-02T07:21:23;3.05;;;1.02;;
69594;SDS011;56800;52.142;5.364;2024-03-02T07:23:50;2.50;;;0.80;;
69594;SDS011;56800;52.142;5.364;2024-03-02T07:26:17;1.70;;;0.75;;
69594;SDS011;56800;52.142;5.364;2024-03-02T07:28:47;2.47;;;0.73;;
69594;SDS011;56800;52.142;5.364;2024-03-02T07:31:15;2.28;;;0.60;;
69594;SDS011;56800;52.142;5.364;2024-03-02T07:33:45;5.80;;;0.93;;
69594;SDS011;56800;52.142;5.364;2024-03-02T07:36:13;3.25;;;0.93;;
69594;SDS011;56800;52.142;5.364;2024-03-02T07:38:40;3.60;;;0.70;;
69594;SDS011;56800;52.142;5.364;2024-03-02T07:41:07;2.53;;;0.90;;
69594;SDS011;56800;52.142;5.364;2024-03-02T07:43:35;2.58;;;0.73;;
69594;SDS011;56800;52.142;5.364;2024-03-02T07:46:02;3.72;;;0.95;;
69594;SDS011;56800;52.142;5.364;2024-03-02T07:48:29;3.60;;;0.95;;
69594;SDS011;56800;52.142;5.364;2024-03-02T07:50:57;6.47;;;1.02;;
69594;SDS011;56800;52.142;5.364;2024-03-02T07:53:24;1.80;;;0.90;;
69594;SDS011;56800;52.142;5.364;2024-03-02T07:55:51;5.50;;;1.00;;
69594;SDS011;56800;52.142;5.364;2024-03-02T07:58:18;3.17;;;1.00;;
69594;SDS011;56800;52.142;5.364;2024-03-02T08:00:46;2.90;;;1.10;;
69594;SDS011;56800;52.142;5.364;2024-03-02T08:03:19;4.35;;;1.00;;
69594;SDS011;56800;52.142;5.364;2024-03-02T08:05:46;1.60;;;0.90;;
69594;SDS011;56800;52.142;5.364;2024-03-02T08:08:12;4.55;;;1.08;;
69594;SDS011;56800;52.142;5.364;2024-03-02T08:10:39;3.50;;;0.90;;
69594;SDS011;56800;52.142;5.364;2024-03-02T08:13:06;1.60;;;0.90;;
69594;SDS011;56800;52.142;5.364;2024-03-02T08:15:33;2.78;;;0.85;;
69594;SDS011;56800;52.142;5.364;2024-03-02T08:18:00;1.67;;;1.10;;
69594;SDS011;56800;52.142;5.364;2024-03-02T08:20:27;4.20;;;1.13;;
69594;SDS011;56800;52.142;5.364;2024-03-02T08:22:54;4.63;;;0.90;;
69594;SDS011;56800;52.142;5.364;2024-03-02T08:25:21;3.42;;;1.00;;
69594;SDS011;56800;52.142;5.364;2024-03-02T08:27:48;2.97;;;0.90;;
69594;SDS011;56800;52.142;5.364;2024-03-02T08:30:15;2.10;;;0.90;;
69594;SDS011;56800;52.142;5.364;2024-03-02T08:32:44;1.83;;;0.80;;
69594;SDS011;56800;52.142;5.364;2024-03-02T08:35:13;3.28;;;0.75;;
69594;SDS011;56800;52.142;5.364;2024-03-02T08:37:41;4.05;;;1.00;;
69594;SDS011;56800;52.142;5.364;2024-03-02T08:40:09;2.03;;;0.80;;
69594;SDS011;56800;52.142;5.364;2024-03-02T08:42:41;3.77;;;1.03;;
69594;SDS011;56800;52.142;5.364;2024-03-02T08:45:08;3.72;;;1.27;;
69594;SDS011;56800;52.142;5.364;2024-03-02T08:47:35;3.88;;;1.00;;
69594;SDS011;56800;52.142;5.364;2024-03-02T08:50:02;5.25;;;1.25;;
69594;SDS011;56800;52.142;5.364;2024-03-02T08:52:31;3.10;;;0.90;;
69594;SDS011;56800;52.142;5.364;2024-03-02T08:54:58;2.27;;;1.20;;
69594;SDS011;56800;52.142;5.364;2024-03-02T08:57:25;5.95;;;1.15;;
69594;SDS011;56800;52.142;5.364;2024-03-02T08:59:52;6.80;;;1.35;;
69594;SDS011;56800;52.142;5.364;2024-03-02T09:02:18;5.78;;;1.20;;
69594;SDS011;56800;52.142;5.364;2024-03-02T09:04:45;2.42;;;1.02;;
69594;SDS011;56800;52.142;5.364;2024-03-02T09:07:12;5.40;;;1.40;;
69594;SDS011;56800;52.142;5.364;2024-03-02T09:09:39;6.30;;;1.17;;
69594;SDS011;56800;52.142;5.364;2024-03-02T09:12:06;2.78;;;1.10;;
69594;SDS011;56800;52.142;5.364;2024-03-02T09:14:34;6.60;;;1.65;;
69594;SDS011;56800;52.142;5.364;2024-03-02T09:17:03;4.30;;;1.30;;
69594;SDS011;56800;52.142;5.364;2024-03-02T09:19:30;2.17;;;1.03;;
69594;SDS011;56800;52.142;5.364;2024-03-02T09:21:57;4.63;;;1.23;;
69594;SDS011;56800;52.142;5.364;2024-03-02T09:24:25;3.78;;;1.08;;
69594;SDS011;56800;52.142;5.364;2024-03-02T09:26:52;5.00;;;1.60;;
69594;SDS011;56800;52.142;5.364;2024-03-02T09:29:19;6.40;;;1.63;;
69594;SDS011;56800;52.142;5.364;2024-03-02T09:31:47;2.90;;;1.43;;
69594;SDS011;56800;52.142;5.364;2024-03-02T09:34:14;4.95;;;1.70;;
69594;SDS011;56800;52.142;5.364;2024-03-02T09:36:43;5.03;;;1.52;;
69594;SDS011;56800;52.142;5.364;2024-03-02T09:39:10;3.45;;;1.23;;
69594;SDS011;56800;52.142;5.364;2024-03-02T09:41:38;4.45;;;1.58;;
69594;SDS011;56800;52.142;5.364;2024-03-02T09:44:05;5.17;;;1.67;;
69594;SDS011;56800;52.142;5.364;2024-03-02T09:46:32;6.78;;;1.70;;
69594;SDS011;56800;52.142;5.364;2024-03-02T09:49:00;4.18;;;1.58;;
69594;SDS011;56800;52.142;5.364;2024-03-02T09:51:27;3.83;;;1.80;;
69594;SDS011;56800;52.142;5.364;2024-03-02T09:53:55;3.88;;;2.05;;
69594;SDS011;56800;52.142;5.364;2024-03-02T09:56:38;4.60;;;1.93;;
69594;SDS011;56800;52.142;5.364;2024-03-02T09:59:05;5.93;;;1.88;;
69594;SDS011;56800;52.142;5.364;2024-03-02T10:01:32;6.15;;;1.95;;
69594;SDS011;56800;52.142;5.364;2024-03-02T10:03:59;3.60;;;1.60;;
69594;SDS011;56800;52.142;5.364;2024-03-02T10:06:28;5.95;;;1.52;;
69594;SDS011;56800;52.142;5.364;2024-03-02T10:08:55;4.83;;;2.07;;
69594;SDS011;56800;52.142;5.364;2024-03-02T10:11:26;3.80;;;2.10;;
69594;SDS011;56800;52.142;5.364;2024-03-02T10:14:04;3.75;;;1.80;;
69594;SDS011;56800;52.142;5.364;2024-03-02T10:16:41;6.97;;;2.13;;
69594;SDS011;56800;52.142;5.364;2024-03-02T10:21:47;6.33;;;2.23;;
69594;SDS011;56800;52.142;5.364;2024-03-02T10:24:19;4.75;;;1.70;;
69594;SDS011;56800;52.142;5.364;2024-03-02T10:26:48;7.57;;;2.15;;
69594;SDS011;56800;52.142;5.364;2024-03-02T10:29:15;6.22;;;2.03;;
69594;SDS011;56800;52.142;5.364;2024-03-02T10:31:46;5.95;;;1.98;;
69594;SDS011;56800;52.142;5.364;2024-03-02T10:34:13;4.07;;;1.90;;
69594;SDS011;56800;52.142;5.364;2024-03-02T10:36:41;5.85;;;1.77;;
69594;SDS011;56800;52.142;5.364;2024-03-02T10:39:09;6.03;;;1.77;;
69594;SDS011;56800;52.142;5.364;2024-03-02T10:41:37;5.63;;;1.70;;
69594;SDS011;56800;52.142;5.364;2024-03-02T10:44:06;5.80;;;1.80;;
69594;SDS011;56800;52.142;5.364;2024-03-02T10:46:35;4.90;;;1.77;;
69594;SDS011;56800;52.142;5.364;2024-03-02T10:49:03;5.15;;;1.65;;
69594;SDS011;56800;52.142;5.364;2024-03-02T10:51:34;5.80;;;1.65;;
69594;SDS011;56800;52.142;5.364;2024-03-02T10:54:03;5.55;;;1.58;;
69594;SDS011;56800;52.142;5.364;2024-03-02T10:56:32;4.15;;;1.60;;
69594;SDS011;56800;52.142;5.364;2024-03-02T10:59:12;4.70;;;1.70;;
69594;SDS011;56800;52.142;5.364;2024-03-02T11:02:02;3.47;;;1.55;;
69594;SDS011;56800;52.142;5.364;2024-03-02T11:04:31;6.47;;;1.60;;
69594;SDS011;56800;52.142;5.364;2024-03-02T11:07:05;3.22;;;1.42;;
69594;SDS011;56800;52.142;5.364;2024-03-02T11:09:34;5.65;;;1.92;;
69594;SDS011;56800;52.142;5.364;2024-03-02T11:12:52;5.33;;;1.63;;
69594;SDS011;56800;52.142;5.364;2024-03-02T11:14:56;4.60;;;2.08;;
69594;SDS011;56800;52.142;5.364;2024-03-02T11:17:23;3.58;;;1.38;;
69594;SDS011;56800;52.142;5.364;2024-03-02T11:19:51;4.93;;;1.60;;
69594;SDS011;56800;52.142;5.364;2024-03-02T11:22:19;4.80;;;1.50;;
69594;SDS011;56800;52.142;5.364;2024-03-02T11:24:50;3.07;;;1.47;;
69594;SDS011;56800;52.142;5.364;2024-03-02T11:33:10;3.88;;;1.23;;
69594;SDS011;56800;52.142;5.364;2024-03-02T11:35:42;4.38;;;1.35;;
69594;SDS011;56800;52.142;5.364;2024-03-02T11:38:13;4.50;;;1.63;;
69594;SDS011;56800;52.142;5.364;2024-03-02T11:40:40;4.53;;;1.40;;
69594;SDS011;56800;52.142;5.364;2024-03-02T11:43:08;6.22;;;1.33;;
69594;SDS011;56800;52.142;5.364;2024-03-02T11:45:36;5.88;;;1.73;;
69594;SDS011;56800;52.142;5.364;2024-03-02T11:48:06;4.55;;;1.50;;
69594;SDS011;56800;52.142;5.364;2024-03-02T11:50:43;5.33;;;1.50;;
69594;SDS011;56800;52.142;5.364;2024-03-02T11:53:15;3.88;;;1.58;;
69594;SDS011;56800;52.142;5.364;2024-03-02T11:55:46;3.83;;;1.70;;
69594;SDS011;56800;52.142;5.364;2024-03-02T11:58:14;4.40;;;1.17;;
69594;SDS011;56800;52.142;5.364;2024-03-02T12:00:47;4.32;;;1.33;;
69594;SDS011;56800;52.142;5.364;2024-03-02T12:03:16;4.87;;;1.50;;
69594;SDS011;56800;52.142;5.364;2024-03-02T12:05:43;4.28;;;1.25;;
69594;SDS011;56800;52.142;5.364;2024-03-02T12:08:14;6.45;;;1.30;;
69594;SDS011;56800;52.142;5.364;2024-03-02T12:10:41;4.07;;;1.17;;
69594;SDS011;56800;52.142;5.364;2024-03-02T12:13:08;5.78;;;1.40;;
69594;SDS011;56800;52.142;5.364;2024-03-02T12:15:38;5.53;;;1.53;;
69594;SDS011;56800;52.142;5.364;2024-03-02T12:18:06;4.35;;;1.17;;
69594;SDS011;56800;52.142;5.364;2024-03-02T12:20:33;3.75;;;1.60;;
69594;SDS011;56800;52.142;5.364;2024-03-02T12:23:02;4.28;;;1.70;;
69594;SDS011;56800;52.142;5.364;2024-03-02T12:25:31;5.85;;;1.42;;
69594;SDS011;56800;52.142;5.364;2024-03-02T12:28:01;4.67;;;1.43;;
69594;SDS011;56800;52.142;5.364;2024-03-02T12:30:29;3.95;;;1.50;;
69594;SDS011;56800;52.142;5.364;2024-03-02T12:32:57;4.72;;;1.42;;
69594;SDS011;56800;52.142;5.364;2024-03-02T12:35:24;4.32;;;1.27;;
69594;SDS011;56800;52.142;5.364;2024-03-02T12:37:52;5.55;;;1.80;;
69594;SDS011;56800;52.142;5.364;2024-03-02T12:40:20;4.37;;;1.33;;
69594;SDS011;56800;52.142;5.364;2024-03-02T12:42:49;3.45;;;1.60;;
69594;SDS011;56800;52.142;5.364;2024-03-02T12:45:17;3.88;;;1.83;;
69594;SDS011;56800;52.142;5.364;2024-03-02T12:47:51;3.75;;;1.60;;
69594;SDS011;56800;52.142;5.364;2024-03-02T12:50:18;5.00;;;1.63;;
69594;SDS011;56800;52.142;5.364;2024-03-02T12:52:53;4.13;;;1.40;;
69594;SDS011;56800;52.142;5.364;2024-03-02T12:55:21;4.95;;;1.70;;
69594;SDS011;56800;52.142;5.364;2024-03-02T12:57:49;4.88;;;1.80;;
69594;SDS011;56800;52.142;5.364;2024-03-02T13:00:18;5.80;;;1.95;;
69594;SDS011;56800;52.142;5.364;2024-03-02T13:02:46;4.30;;;1.40;;
69594;SDS011;56800;52.142;5.364;2024-03-02T13:05:18;3.33;;;1.47;;
69594;SDS011;56800;52.142;5.364;2024-03-02T13:07:47;3.30;;;1.73;;
69594;SDS011;56800;52.142;5.364;2024-03-02T13:10:15;5.38;;;2.05;;
69594;SDS011;56800;52.142;5.364;2024-03-02T13:12:43;4.22;;;1.90;;
69594;SDS011;56800;52.142;5.364;2024-03-02T13:15:09;4.63;;;1.85;;
69594;SDS011;56800;52.142;5.364;2024-03-02T13:17:42;4.10;;;1.67;;
69594;SDS011;56800;52.142;5.364;2024-03-02T13:20:12;7.72;;;1.95;;
69594;SDS011;56800;52.142;5.364;2024-03-02T13:22:41;6.80;;;2.00;;
69594;SDS011;56800;52.142;5.364;2024-03-02T13:25:08;7.18;;;1.95;;
69594;SDS011;56800;52.142;5.364;2024-03-02T13:27:38;5.18;;;1.90;;
69594;SDS011;56800;52.142;5.364;2024-03-02T13:30:05;8.43;;;1.90;;
69594;SDS011;56800;52.142;5.364;2024-03-02T13:32:34;4.30;;;1.80;;
69594;SDS011;56800;52.142;5.364;2024-03-02T13:35:01;3.90;;;1.77;;
69594;SDS011;56800;52.142;5.364;2024-03-02T13:37:29;6.75;;;1.70;;
69594;SDS011;56800;52.142;5.364;2024-03-02T13:39:56;5.68;;;1.70;;
69594;SDS011;56800;52.142;5.364;2024-03-02T13:42:23;4.90;;;1.87;;
69594;SDS011;56800;52.142;5.364;2024-03-02T13:44:50;5.50;;;2.00;;
69594;SDS011;56800;52.142;5.364;2024-03-02T13:47:17;5.90;;;2.03;;
69594;SDS011;56800;52.142;5.364;2024-03-02T13:49:44;7.68;;;1.63;;
69594;SDS011;56800;52.142;5.364;2024-03-02T13:52:13;9.38;;;2.25;;
69594;SDS011;56800;52.142;5.364;2024-03-02T13:54:41;6.63;;;1.87;;
69594;SDS011;56800;52.142;5.364;2024-03-02T13:57:12;5.78;;;2.67;;
69594;SDS011;56800;52.142;5.364;2024-03-02T13:59:40;5.65;;;1.90;;
69594;SDS011;56800;52.142;5.364;2024-03-02T14:02:09;5.65;;;2.00;;
69594;SDS011;56800;52.142;5.364;2024-03-02T14:04:37;6.43;;;1.92;;
69594;SDS011;56800;52.142;5.364;2024-03-02T14:07:05;5.73;;;1.77;;
69594;SDS011;56800;52.142;5.364;2024-03-02T14:09:37;5.07;;;1.73;;
69594;SDS011;56800;52.142;5.364;2024-03-02T14:12:04;6.60;;;1.88;;
69594;SDS011;56800;52.142;5.364;2024-03-02T14:14:32;5.90;;;1.83;;
69594;SDS011;56800;52.142;5.364;2024-03-02T14:16:59;5.80;;;2.03;;
69594;SDS011;56800;52.142;5.364;2024-03-02T14:19:30;5.93;;;1.63;;
69594;SDS011;56800;52.142;5.364;2024-03-02T14:21:57;5.05;;;1.83;;
69594;SDS011;56800;52.142;5.364;2024-03-02T14:24:26;5.07;;;1.65;;
69594;SDS011;56800;52.142;5.364;2024-03-02T14:26:54;4.47;;;1.77;;
69594;SDS011;56800;52.142;5.364;2024-03-02T14:29:35;3.67;;;1.77;;
69594;SDS011;56800;52.142;5.364;2024-03-02T14:32:04;4.03;;;2.00;;
69594;SDS011;56800;52.142;5.364;2024-03-02T14:34:34;5.20;;;1.90;;
69594;SDS011;56800;52.142;5.364;2024-03-02T14:37:03;3.60;;;1.85;;
69594;SDS011;56800;52.142;5.364;2024-03-02T14:39:30;4.72;;;1.85;;
69594;SDS011;56800;52.142;5.364;2024-03-02T14:42:01;5.18;;;1.90;;
69594;SDS011;56800;52.142;5.364;2024-03-02T14:44:28;5.60;;;1.70;;
69594;SDS011;56800;52.142;5.364;2024-03-02T14:46:55;5.00;;;1.80;;
69594;SDS011;56800;52.142;5.364;2024-03-02T14:49:25;3.28;;;1.45;;
69594;SDS011;56800;52.142;5.364;2024-03-02T14:51:52;4.03;;;1.70;;
69594;SDS011;56800;52.142;5.364;2024-03-02T14:54:19;6.68;;;1.80;;
69594;SDS011;56800;52.142;5.364;2024-03-02T14:56:46;5.03;;;1.90;;
69594;SDS011;56800;52.142;5.364;2024-03-02T14:59:13;2.85;;;1.63;;
69594;SDS011;56800;52.142;5.364;2024-03-02T15:01:40;3.55;;;1.77;;
69594;SDS011;56800;52.142;5.364;2024-03-02T15:04:07;4.00;;;1.50;;